createdAt,value
2016-12-16T00:00:53.206Z,20.53
2016-12-16T00:02:03.470Z,20.55
2016-12-16T00:03:13.760Z,20.5
2016-12-16T00:04:24.048Z,20.5
2016-12-16T00:05:33.379Z,20.52
2016-12-16T00:06:43.337Z,20.5
2016-12-16T00:07:53.315Z,20.49
2016-12-16T00:09:03.283Z,20.53
2016-12-16T00:10:13.239Z,20.53
2016-12-16T00:11:23.216Z,20.5
2016-12-16T00:12:33.517Z,20.56
2016-12-16T00:13:43.785Z,20.52
2016-12-16T00:14:53.748Z,20.53
2016-12-16T00:16:03.398Z,20.55
2016-12-16T00:17:13.664Z,20.53
2016-12-16T00:18:23.975Z,20.49
2016-12-16T00:19:33.943Z,20.44
2016-12-16T00:20:43.590Z,20.5
2016-12-16T00:21:53.866Z,20.53
2016-12-16T00:23:04.151Z,20.49
2016-12-16T00:24:14.132Z,20.53
2016-12-16T00:25:24.118Z,20.56
2016-12-16T00:26:34.384Z,20.44
2016-12-16T00:27:44.649Z,20.4
2016-12-16T00:28:54.960Z,20.55
2016-12-16T00:30:05.232Z,20.55
2016-12-16T00:31:15.213Z,20.5
2016-12-16T00:32:25.175Z,20.5
2016-12-16T00:33:35.140Z,20.48
2016-12-16T00:34:45.411Z,20.49
2016-12-16T00:35:55.670Z,20.48
2016-12-16T00:37:05.958Z,20.48
2016-12-16T00:38:16.231Z,20.4
2016-12-16T00:39:25.881Z,20.48
2016-12-16T00:40:35.543Z,20.4
2016-12-16T00:41:45.191Z,20.56
2016-12-16T00:42:55.188Z,20.42
2016-12-16T00:44:04.548Z,20.48
2016-12-16T00:45:14.508Z,20.37
2016-12-16T00:46:24.160Z,20.4
2016-12-16T00:47:34.422Z,20.42
2016-12-16T00:48:44.109Z,20.48
2016-12-16T00:49:54.372Z,20.4
2016-12-16T00:51:04.033Z,20.48
2016-12-16T00:52:14.304Z,20.48
2016-12-16T00:53:24.260Z,20.42
2016-12-16T00:54:34.522Z,20.46
2016-12-16T00:55:44.486Z,20.4
2016-12-16T00:56:54.449Z,20.42
2016-12-16T00:58:04.103Z,20.49
2016-12-16T00:59:14.404Z,20.44
2016-12-16T01:00:24.695Z,20.5
2016-12-16T01:01:34.960Z,20.42
2016-12-16T01:02:45.242Z,20.42
2016-12-16T01:03:54.893Z,20.44
2016-12-16T01:05:04.541Z,20.44
2016-12-16T01:06:14.810Z,20.44
2016-12-16T01:07:25.082Z,20.46
2016-12-16T01:08:35.364Z,20.4
2016-12-16T01:09:45.642Z,20.44
2016-12-16T01:10:55.911Z,20.44
2016-12-16T01:12:06.234Z,20.44
2016-12-16T01:13:16.503Z,20.52
2016-12-16T01:14:26.803Z,20.48
2016-12-16T01:15:37.066Z,20.48
2016-12-16T01:16:47.350Z,20.44
2016-12-16T01:17:57.313Z,20.44
2016-12-16T01:19:07.271Z,20.5
2016-12-16T01:20:16.618Z,20.42
2016-12-16T01:21:26.887Z,20.42
2016-12-16T01:22:36.845Z,20.4
2016-12-16T01:23:46.810Z,20.46
2016-12-16T01:24:56.758Z,20.44
2016-12-16T01:26:06.824Z,20.46
2016-12-16T01:27:17.099Z,20.46
2016-12-16T01:28:27.069Z,20.46
2016-12-16T01:29:37.018Z,20.44
2016-12-16T01:30:46.974Z,20.37
2016-12-16T01:31:57.242Z,20.39
2016-12-16T01:33:07.524Z,20.4
2016-12-16T01:34:17.792Z,20.42
2016-12-16T01:35:27.447Z,20.44
2016-12-16T01:36:37.098Z,20.48
2016-12-16T01:37:47.367Z,20.4
2016-12-16T01:38:57.315Z,20.39
2016-12-16T01:40:07.592Z,20.42
2016-12-16T01:41:17.853Z,20.39
2016-12-16T01:42:28.129Z,20.4
2016-12-16T01:43:38.394Z,20.46
2016-12-16T01:44:48.679Z,20.46
2016-12-16T01:45:59.098Z,20.39
2016-12-16T01:47:09.079Z,20.44
2016-12-16T01:48:19.396Z,20.37
2016-12-16T01:49:28.746Z,20.32
2016-12-16T01:50:38.707Z,20.44
2016-12-16T01:51:48.352Z,20.39
2016-12-16T01:52:58.310Z,20.44
2016-12-16T01:54:08.583Z,20.44
2016-12-16T01:55:18.541Z,20.48
2016-12-16T01:56:28.347Z,20.44
2016-12-16T01:57:38.604Z,20.44
2016-12-16T01:58:48.281Z,20.42
2016-12-16T01:59:58.550Z,20.44
2016-12-16T02:01:08.851Z,20.34
2016-12-16T02:02:19.123Z,20.37
2016-12-16T02:03:29.065Z,20.32
2016-12-16T02:04:39.037Z,20.46
2016-12-16T02:05:48.995Z,20.4
2016-12-16T02:06:58.950Z,20.3
2016-12-16T02:08:08.934Z,20.34
2016-12-16T02:09:18.906Z,20.44
2016-12-16T02:10:29.695Z,20.39
2016-12-16T02:11:39.356Z,20.27
2016-12-16T02:12:49.632Z,20.33
2016-12-16T02:13:59.907Z,20.44
2016-12-16T02:15:09.859Z,20.32
2016-12-16T02:16:19.815Z,20.44
2016-12-16T02:17:30.076Z,20.29
2016-12-16T02:18:40.073Z,20.29
2016-12-16T02:19:50.028Z,20.34
2016-12-16T02:20:59.686Z,20.3
2016-12-16T02:22:09.655Z,20.29
2016-12-16T02:23:19.632Z,20.32
2016-12-16T02:24:29.594Z,20.34
2016-12-16T02:25:39.889Z,20.29
2016-12-16T02:26:50.208Z,20.29
2016-12-16T02:28:00.166Z,20.29
2016-12-16T02:29:10.116Z,20.34
2016-12-16T02:30:20.387Z,20.3
2016-12-16T02:31:30.643Z,20.29
2016-12-16T02:32:40.636Z,20.32
2016-12-16T02:33:50.335Z,20.32
2016-12-16T02:35:00.307Z,20.33
2016-12-16T02:36:10.259Z,20.34
2016-12-16T02:37:20.217Z,20.34
2016-12-16T02:38:30.483Z,20.29
2016-12-16T02:39:40.482Z,20.34
2016-12-16T02:40:50.748Z,20.33
2016-12-16T02:42:00.716Z,20.34
2016-12-16T02:43:11.013Z,20.27
2016-12-16T02:44:19.737Z,20.32
2016-12-16T02:45:30.013Z,20.34
2016-12-16T02:46:40.297Z,20.32
2016-12-16T02:47:50.255Z,20.33
2016-12-16T02:49:00.220Z,20.26
2016-12-16T02:50:10.514Z,20.34
2016-12-16T02:51:20.785Z,20.32
2016-12-16T02:52:30.745Z,20.36
2016-12-16T02:53:41.001Z,20.26
2016-12-16T02:54:51.270Z,20.33
2016-12-16T02:56:01.545Z,20.32
2016-12-16T02:57:11.807Z,20.32
2016-12-16T02:58:21.625Z,20.37
2016-12-16T02:59:31.901Z,20.36
2016-12-16T03:00:41.570Z,20.29
2016-12-16T03:01:51.830Z,20.29
2016-12-16T03:03:02.092Z,20.34
2016-12-16T03:04:12.060Z,20.32
2016-12-16T03:05:22.323Z,20.3
2016-12-16T03:06:32.284Z,20.3
2016-12-16T03:07:42.243Z,20.29
2016-12-16T03:08:52.531Z,20.36
2016-12-16T03:10:02.796Z,20.3
2016-12-16T03:11:12.755Z,20.36
2016-12-16T03:12:22.715Z,20.27
2016-12-16T03:13:33.004Z,20.29
2016-12-16T03:14:43.272Z,20.34
2016-12-16T03:15:52.921Z,20.3
2016-12-16T03:17:02.895Z,20.32
2016-12-16T03:18:13.164Z,20.37
2016-12-16T03:19:23.119Z,20.33
2016-12-16T03:20:33.068Z,20.26
2016-12-16T03:21:43.334Z,20.32
2016-12-16T03:22:53.596Z,20.39
2016-12-16T03:24:03.567Z,20.33
2016-12-16T03:25:13.522Z,20.39
2016-12-16T03:26:23.798Z,20.33
2016-12-16T03:27:33.747Z,20.37
2016-12-16T03:28:43.698Z,20.29
2016-12-16T03:29:53.971Z,20.34
2016-12-16T03:31:04.248Z,20.3
2016-12-16T03:32:14.255Z,20.27
2016-12-16T03:33:24.233Z,20.32
2016-12-16T03:34:34.501Z,20.34
2016-12-16T03:35:44.461Z,20.33
2016-12-16T03:36:54.108Z,20.33
2016-12-16T03:38:04.063Z,20.33
2016-12-16T03:39:14.335Z,20.29
2016-12-16T03:40:24.588Z,20.32
2016-12-16T03:41:34.287Z,20.36
2016-12-16T03:42:44.584Z,20.39
2016-12-16T03:43:54.229Z,20.32
2016-12-16T03:45:04.191Z,20.34
2016-12-16T03:46:14.463Z,20.3
2016-12-16T03:47:24.428Z,20.36
2016-12-16T03:48:34.687Z,20.36
2016-12-16T03:49:44.947Z,20.29
2016-12-16T03:50:55.214Z,20.33
2016-12-16T03:52:05.167Z,20.34
2016-12-16T03:53:15.884Z,20.33
2016-12-16T03:54:25.854Z,20.29
2016-12-16T03:55:35.838Z,20.32
2016-12-16T03:56:46.133Z,20.37
2016-12-16T03:57:56.389Z,20.29
2016-12-16T03:59:06.354Z,20.3
2016-12-16T04:00:16.322Z,20.33
2016-12-16T04:01:26.629Z,20.32
2016-12-16T04:02:36.277Z,20.3
2016-12-16T04:03:46.229Z,20.37
2016-12-16T04:04:56.184Z,20.32
2016-12-16T04:06:06.142Z,20.33
2016-12-16T04:07:16.399Z,20.36
2016-12-16T04:08:26.047Z,20.22
2016-12-16T04:09:36.322Z,20.33
2016-12-16T04:10:46.587Z,20.22
2016-12-16T04:11:56.849Z,20.21
2016-12-16T04:13:06.491Z,20.33
2016-12-16T04:14:16.462Z,20.3
2016-12-16T04:15:26.754Z,20.22
2016-12-16T04:16:36.737Z,20.29
2016-12-16T04:17:47.006Z,20.33
2016-12-16T04:18:56.965Z,20.19
2016-12-16T04:20:07.240Z,20.36
2016-12-16T04:21:17.510Z,20.36
2016-12-16T04:22:27.161Z,20.19
2016-12-16T04:23:37.665Z,20.3
2016-12-16T04:24:47.934Z,20.19
2016-12-16T04:25:57.896Z,20.32
2016-12-16T04:27:07.858Z,20.32
2016-12-16T04:28:18.139Z,20.27
2016-12-16T04:29:28.091Z,20.24
2016-12-16T04:30:38.104Z,20.3
2016-12-16T04:31:48.056Z,20.3
2016-12-16T04:32:58.014Z,20.22
2016-12-16T04:34:07.973Z,20.34
2016-12-16T04:35:18.244Z,20.27
2016-12-16T04:36:27.902Z,20.3
2016-12-16T04:37:37.857Z,20.22
2016-12-16T04:38:47.505Z,20.26
2016-12-16T04:39:57.463Z,20.32
2016-12-16T04:41:07.105Z,20.34
2016-12-16T04:42:17.061Z,20.22
2016-12-16T04:43:27.336Z,20.36
2016-12-16T04:44:37.300Z,20.32
2016-12-16T04:45:47.579Z,20.34
2016-12-16T04:46:57.547Z,20.33
2016-12-16T04:48:07.841Z,20.22
2016-12-16T04:49:17.803Z,20.26
2016-12-16T04:50:28.078Z,20.36
2016-12-16T04:51:38.046Z,20.29
2016-12-16T04:52:48.312Z,20.18
2016-12-16T04:53:58.264Z,20.32
2016-12-16T04:55:08.231Z,20.22
2016-12-16T04:56:18.206Z,20.19
2016-12-16T04:57:28.472Z,20.26
2016-12-16T04:58:38.441Z,20.27
2016-12-16T04:59:48.094Z,20.22
2016-12-16T05:00:58.049Z,20.32
2016-12-16T05:02:08.040Z,20.21
2016-12-16T05:03:18.342Z,20.3
2016-12-16T05:04:28.612Z,20.24
2016-12-16T05:05:38.935Z,20.24
2016-12-16T05:06:48.898Z,20.18
2016-12-16T05:07:59.252Z,20.19
2016-12-16T05:09:09.553Z,20.24
2016-12-16T05:10:19.512Z,20.26
2016-12-16T05:11:29.156Z,20.26
2016-12-16T05:12:38.817Z,20.24
2016-12-16T05:13:48.775Z,20.32
2016-12-16T05:14:59.047Z,20.19
2016-12-16T05:16:09.329Z,20.3
2016-12-16T05:17:19.301Z,20.21
2016-12-16T05:18:28.951Z,20.17
2016-12-16T05:19:38.901Z,20.26
2016-12-16T05:20:49.160Z,20.24
2016-12-16T05:21:59.444Z,20.29
2016-12-16T05:23:09.713Z,20.19
2016-12-16T05:24:19.982Z,20.24
2016-12-16T05:25:29.931Z,20.26
2016-12-16T05:26:39.918Z,20.19
2016-12-16T05:27:49.880Z,20.22
2016-12-16T05:28:59.848Z,20.26
2016-12-16T05:30:10.110Z,20.24
2016-12-16T05:31:20.061Z,20.33
2016-12-16T05:32:30.340Z,20.3
2016-12-16T05:33:39.979Z,20.29
2016-12-16T05:34:50.258Z,20.21
2016-12-16T05:36:00.520Z,20.27
2016-12-16T05:37:09.854Z,20.24
2016-12-16T05:38:19.806Z,20.21
2016-12-16T05:39:30.078Z,20.22
2016-12-16T05:40:40.037Z,20.21
2016-12-16T05:41:49.687Z,20.22
2016-12-16T05:42:59.652Z,20.26
2016-12-16T05:44:09.924Z,20.21
2016-12-16T05:45:20.194Z,20.27
2016-12-16T05:46:30.159Z,20.21
2016-12-16T05:47:39.813Z,20.22
2016-12-16T05:48:50.088Z,20.24
2016-12-16T05:50:00.363Z,20.24
2016-12-16T05:51:10.647Z,20.24
2016-12-16T05:52:20.920Z,20.21
2016-12-16T05:53:31.198Z,20.22
2016-12-16T05:54:41.173Z,20.22
2016-12-16T05:55:51.454Z,20.19
2016-12-16T05:57:01.099Z,20.27
2016-12-16T05:58:11.064Z,20.21
2016-12-16T05:59:21.327Z,20.27
2016-12-16T06:00:31.310Z,20.21
2016-12-16T06:01:41.586Z,20.18
2016-12-16T06:02:50.919Z,20.24
2016-12-16T06:04:00.879Z,20.24
2016-12-16T06:05:11.157Z,20.19
2016-12-16T06:06:21.127Z,20.26
2016-12-16T06:07:31.094Z,20.18
2016-12-16T06:08:41.068Z,20.24
2016-12-16T06:09:51.340Z,20.26
2016-12-16T06:11:00.994Z,20.21
2016-12-16T06:12:11.275Z,20.21
2016-12-16T06:13:20.923Z,20.18
2016-12-16T06:14:31.202Z,20.22
2016-12-16T06:15:41.173Z,20.24
2016-12-16T06:16:51.438Z,20.19
2016-12-16T06:18:01.403Z,20.24
2016-12-16T06:19:11.106Z,20.21
2016-12-16T06:20:21.077Z,20.19
2016-12-16T06:21:31.417Z,20.24
2016-12-16T06:22:41.691Z,20.18
2016-12-16T06:23:51.656Z,20.19
2016-12-16T06:25:01.934Z,20.19
2016-12-16T06:26:12.213Z,20.29
2016-12-16T06:27:22.190Z,20.21
2016-12-16T06:28:32.463Z,20.17
2016-12-16T06:29:42.427Z,20.21
2016-12-16T06:30:52.404Z,20.29
2016-12-16T06:32:02.683Z,20.22
2016-12-16T06:33:12.334Z,20.19
2016-12-16T06:34:22.293Z,20.19
2016-12-16T06:35:32.580Z,20.12
2016-12-16T06:36:42.542Z,20.26
2016-12-16T06:37:52.815Z,20.21
2016-12-16T06:39:02.530Z,20.18
2016-12-16T06:40:12.488Z,20.19
2016-12-16T06:41:22.448Z,20.17
2016-12-16T06:42:32.104Z,20.27
2016-12-16T06:43:42.437Z,20.19
2016-12-16T06:44:52.700Z,20.21
2016-12-16T06:46:02.971Z,20.22
2016-12-16T06:47:12.952Z,20.18
2016-12-16T06:48:22.929Z,20.21
2016-12-16T06:49:33.195Z,20.26
2016-12-16T06:50:43.970Z,20.19
2016-12-16T06:51:54.261Z,20.17
2016-12-16T06:53:04.230Z,20.19
2016-12-16T06:54:14.206Z,20.19
2016-12-16T06:55:24.488Z,20.21
2016-12-16T06:56:34.437Z,20.21
2016-12-16T06:57:44.738Z,20.19
2016-12-16T06:58:55.036Z,20.19
2016-12-16T07:00:05.368Z,20.17
2016-12-16T07:01:15.022Z,20.21
2016-12-16T07:02:24.993Z,20.22
2016-12-16T07:03:35.282Z,20.24
2016-12-16T07:04:45.569Z,20.26
2016-12-16T07:05:55.228Z,20.21
2016-12-16T07:07:05.182Z,20.21
2016-12-16T07:08:15.150Z,20.24
2016-12-16T07:09:24.796Z,20.3
2016-12-16T07:10:35.077Z,20.14
2016-12-16T07:11:45.356Z,20.17
2016-12-16T07:12:55.628Z,20.19
2016-12-16T07:14:05.621Z,20.22
2016-12-16T07:15:15.588Z,20.21
2016-12-16T07:16:25.867Z,20.24
2016-12-16T07:17:35.272Z,20.18
2016-12-16T07:18:45.669Z,20.24
2016-12-16T07:19:55.637Z,20.17
2016-12-16T07:21:05.912Z,20.21
2016-12-16T07:22:15.598Z,20.18
2016-12-16T07:23:25.918Z,20.22
2016-12-16T07:24:36.244Z,20.22
2016-12-16T07:25:46.518Z,20.24
2016-12-16T07:26:56.494Z,20.21
2016-12-16T07:28:06.773Z,20.21
2016-12-16T07:29:17.055Z,20.22
2016-12-16T07:30:27.337Z,20.19
2016-12-16T07:31:37.313Z,20.18
2016-12-16T07:32:47.618Z,20.18
2016-12-16T07:33:57.570Z,20.26
2016-12-16T07:35:07.545Z,20.19
2016-12-16T07:36:17.211Z,20.24
2016-12-16T07:37:26.553Z,20.19
2016-12-16T07:38:36.834Z,20.18
2016-12-16T07:39:46.780Z,20.27
2016-12-16T07:40:56.744Z,20.21
2016-12-16T07:42:06.415Z,20.24
2016-12-16T07:43:16.699Z,20.22
2016-12-16T07:44:27.009Z,20.26
2016-12-16T07:45:37.287Z,20.3
2016-12-16T07:46:47.280Z,20.21
2016-12-16T07:47:56.936Z,20.22
2016-12-16T07:49:07.266Z,20.21
2016-12-16T07:50:17.236Z,20.22
2016-12-16T07:51:27.218Z,20.24
2016-12-16T07:52:36.888Z,20.29
2016-12-16T07:53:47.218Z,20.22
2016-12-16T07:54:57.192Z,20.27
2016-12-16T07:56:07.221Z,20.27
2016-12-16T07:57:17.211Z,20.19
2016-12-16T07:58:27.557Z,20.24
2016-12-16T07:59:37.598Z,20.24
2016-12-16T08:00:47.960Z,20.22
2016-12-16T08:01:57.941Z,20.24
2016-12-16T08:03:08.258Z,20.24
2016-12-16T08:04:18.244Z,20.3
2016-12-16T08:05:28.276Z,20.3
2016-12-16T08:06:37.635Z,20.34
2016-12-16T08:07:47.961Z,20.21
2016-12-16T08:08:58.187Z,20.19
2016-12-16T08:10:08.523Z,20.21
2016-12-16T08:11:18.741Z,20.19
2016-12-16T08:12:28.410Z,20.24
2016-12-16T08:13:38.120Z,20.3
2016-12-16T08:14:48.631Z,20.33
2016-12-16T08:15:58.642Z,20.32
2016-12-16T08:17:09.371Z,20.27
2016-12-16T08:18:19.582Z,20.21
2016-12-16T08:19:29.262Z,20.17
2016-12-16T08:20:39.623Z,20.3
2016-12-16T08:21:49.319Z,20.19
2016-12-16T08:22:59.633Z,20.33
2016-12-16T08:24:09.601Z,20.34
2016-12-16T08:25:19.595Z,20.29
2016-12-16T08:26:28.946Z,20.27
2016-12-16T08:27:39.240Z,20.32
2016-12-16T08:28:49.521Z,20.3
2016-12-16T08:29:59.528Z,20.19
2016-12-16T08:31:09.823Z,20.36
2016-12-16T08:32:19.201Z,20.29
2016-12-16T08:33:28.856Z,20.34
2016-12-16T08:34:38.840Z,20.37
2016-12-16T08:35:48.812Z,20.36
2016-12-16T08:36:59.096Z,20.34
2016-12-16T08:38:09.064Z,20.37
2016-12-16T08:39:19.029Z,20.3
2016-12-16T08:40:28.990Z,20.36
2016-12-16T08:41:38.945Z,20.33
2016-12-16T08:42:49.236Z,20.27
2016-12-16T08:43:59.537Z,20.32
2016-12-16T08:45:09.819Z,20.36
2016-12-16T08:46:20.110Z,20.27
2016-12-16T08:47:30.097Z,20.29
2016-12-16T08:48:40.379Z,20.27
2016-12-16T08:49:50.372Z,20.3
2016-12-16T08:51:00.648Z,20.32
2016-12-16T08:52:10.939Z,20.3
2016-12-16T08:53:20.911Z,20.3
2016-12-16T08:54:30.886Z,20.32
2016-12-16T08:55:40.842Z,20.32
2016-12-16T08:56:50.809Z,20.4
2016-12-16T08:58:01.163Z,20.29
2016-12-16T08:59:11.134Z,20.29
2016-12-16T09:00:21.112Z,20.33
2016-12-16T09:01:31.445Z,20.33
2016-12-16T09:02:41.961Z,20.39
2016-12-16T09:03:51.623Z,20.32
2016-12-16T09:05:01.905Z,20.34
2016-12-16T09:06:12.180Z,20.3
2016-12-16T09:07:22.452Z,20.29
2016-12-16T09:08:31.804Z,20.27
2016-12-16T09:09:41.765Z,20.39
2016-12-16T09:10:51.421Z,20.42
2016-12-16T09:12:01.403Z,20.37
2016-12-16T09:13:11.682Z,20.4
2016-12-16T09:14:21.336Z,20.44
2016-12-16T09:15:31.316Z,20.46
2016-12-16T09:16:41.285Z,20.42
2016-12-16T09:17:51.251Z,20.46
2016-12-16T09:19:01.535Z,20.37
2016-12-16T09:20:11.506Z,20.44
2016-12-16T09:21:21.517Z,20.37
2016-12-16T09:22:31.490Z,20.46
2016-12-16T09:23:41.762Z,20.4
2016-12-16T09:24:51.749Z,20.44
2016-12-16T09:26:02.047Z,20.48
2016-12-16T09:27:12.028Z,20.4
2016-12-16T09:28:22.296Z,20.44
2016-12-16T09:29:32.590Z,20.46
2016-12-16T09:30:42.866Z,20.46
2016-12-16T09:31:52.231Z,20.42
2016-12-16T09:33:02.546Z,20.48
2016-12-16T09:34:12.861Z,20.39
2016-12-16T09:35:22.827Z,20.53
2016-12-16T09:36:33.041Z,20.5
2016-12-16T09:37:43.019Z,20.48
2016-12-16T09:38:53.303Z,20.42
2016-12-16T09:40:02.968Z,20.49
2016-12-16T09:41:12.611Z,20.55
2016-12-16T09:42:22.589Z,20.5
2016-12-16T09:43:32.571Z,20.5
2016-12-16T09:44:42.853Z,20.5
2016-12-16T09:45:53.141Z,20.5
2016-12-16T09:47:03.464Z,20.52
2016-12-16T09:48:13.635Z,20.42
2016-12-16T09:49:23.295Z,20.5
2016-12-16T09:50:33.601Z,20.46
2016-12-16T09:51:43.570Z,20.46
2016-12-16T09:52:53.861Z,20.55
2016-12-16T09:54:04.141Z,20.46
2016-12-16T09:55:14.426Z,20.53
2016-12-16T09:56:24.715Z,20.5
2016-12-16T09:57:35.000Z,20.52
2016-12-16T09:58:44.958Z,20.46
2016-12-16T09:59:54.939Z,20.46
2016-12-16T10:01:05.237Z,20.46
2016-12-16T10:02:15.212Z,20.52
2016-12-16T10:03:25.205Z,20.48
2016-12-16T10:04:34.565Z,20.5
2016-12-16T10:05:44.907Z,20.58
2016-12-16T10:06:54.875Z,20.53
2016-12-16T10:08:05.166Z,20.55
2016-12-16T10:09:15.159Z,20.55
2016-12-16T10:10:24.823Z,20.55
2016-12-16T10:11:34.810Z,20.53
2016-12-16T10:12:45.098Z,20.59
2016-12-16T10:13:55.080Z,20.55
2016-12-16T10:15:05.083Z,20.56
2016-12-16T10:16:15.368Z,20.53
2016-12-16T10:17:25.333Z,20.6
2016-12-16T10:18:35.613Z,20.55
2016-12-16T10:19:45.960Z,20.64
2016-12-16T10:20:56.245Z,20.64
2016-12-16T10:22:06.239Z,20.63
2016-12-16T10:23:16.203Z,20.59
2016-12-16T10:24:26.197Z,20.64
2016-12-16T10:25:36.605Z,20.66
2016-12-16T10:26:46.277Z,20.64
2016-12-16T10:27:56.571Z,20.6
2016-12-16T10:29:06.571Z,20.56
2016-12-16T10:30:16.553Z,20.66
2016-12-16T10:31:26.598Z,20.64
2016-12-16T10:32:36.263Z,20.67
2016-12-16T10:33:46.241Z,20.66
2016-12-16T10:34:56.593Z,20.74
2016-12-16T10:36:06.890Z,20.67
2016-12-16T10:37:17.197Z,20.68
2016-12-16T10:38:27.467Z,20.78
2016-12-16T10:39:37.469Z,20.68
2016-12-16T10:40:47.457Z,20.74
2016-12-16T10:41:57.757Z,20.74
2016-12-16T10:43:07.724Z,20.74
2016-12-16T10:44:17.690Z,20.78
2016-12-16T10:45:27.981Z,20.8
2016-12-16T10:46:37.644Z,20.78
2016-12-16T10:47:47.618Z,20.78
2016-12-16T10:48:57.909Z,20.78
2016-12-16T10:50:08.191Z,20.8
2016-12-16T10:51:18.159Z,20.71
2016-12-16T10:52:28.133Z,20.78
2016-12-16T10:53:38.391Z,20.78
2016-12-16T10:54:48.748Z,20.8
2016-12-16T10:55:58.712Z,20.68
2016-12-16T10:57:08.991Z,20.86
2016-12-16T10:58:18.990Z,20.82
2016-12-16T10:59:28.961Z,20.82
2016-12-16T11:00:39.007Z,20.8
2016-12-16T11:01:48.660Z,20.88
2016-12-16T11:02:58.935Z,20.83
2016-12-16T11:04:08.904Z,20.85
2016-12-16T11:05:18.865Z,20.8
2016-12-16T11:06:28.519Z,20.86
2016-12-16T11:07:38.494Z,20.93
2016-12-16T11:08:48.764Z,20.89
2016-12-16T11:09:58.737Z,20.85
2016-12-16T11:11:09.028Z,20.92
2016-12-16T11:12:18.731Z,20.85
2016-12-16T11:13:29.006Z,20.88
2016-12-16T11:14:38.986Z,20.85
2016-12-16T11:15:48.954Z,20.86
2016-12-16T11:16:58.920Z,20.85
2016-12-16T11:18:08.894Z,20.92
2016-12-16T11:19:18.542Z,20.9
2016-12-16T11:20:28.830Z,20.88
2016-12-16T11:21:39.112Z,20.9
2016-12-16T11:22:48.766Z,20.9
2016-12-16T11:23:59.099Z,20.9
2016-12-16T11:25:09.390Z,20.89
2016-12-16T11:26:19.386Z,20.95
2016-12-16T11:27:29.374Z,20.95
2016-12-16T11:28:39.668Z,20.95
2016-12-16T11:29:49.643Z,20.89
2016-12-16T11:30:59.928Z,20.85
2016-12-16T11:32:10.210Z,20.96
2016-12-16T11:33:20.180Z,20.95
2016-12-16T11:34:30.143Z,20.89
2016-12-16T11:35:40.107Z,20.95
2016-12-16T11:36:50.456Z,20.92
2016-12-16T11:38:00.472Z,20.92
2016-12-16T11:39:10.129Z,20.89
2016-12-16T11:40:20.127Z,20.92
2016-12-16T11:41:30.421Z,20.88
2016-12-16T11:42:40.075Z,20.98
2016-12-16T11:43:50.363Z,20.83
2016-12-16T11:45:00.331Z,20.96
2016-12-16T11:46:10.629Z,20.88
2016-12-16T11:47:20.620Z,20.83
2016-12-16T11:48:30.927Z,20.86
2016-12-16T11:49:40.911Z,20.88
2016-12-16T11:50:51.211Z,21
2016-12-16T11:52:01.519Z,20.9
2016-12-16T11:53:11.283Z,20.98
2016-12-16T11:54:20.968Z,20.98
2016-12-16T11:55:30.956Z,21.01
2016-12-16T11:56:40.675Z,20.95
2016-12-16T11:57:50.332Z,20.95
2016-12-16T11:59:00.652Z,20.96
2016-12-16T12:00:10.038Z,20.96
2016-12-16T12:01:20.320Z,20.96
2016-12-16T12:02:30.006Z,20.98
2016-12-16T12:03:39.994Z,21.05
2016-12-16T12:04:50.275Z,20.96
2016-12-16T12:05:59.948Z,20.95
2016-12-16T12:07:10.262Z,20.9
2016-12-16T12:08:20.483Z,20.98
2016-12-16T12:09:30.451Z,20.88
2016-12-16T12:10:39.830Z,20.96
2016-12-16T12:11:50.115Z,20.9
2016-12-16T12:13:00.426Z,20.92
2016-12-16T12:14:10.736Z,20.88
2016-12-16T12:15:20.721Z,20.88
2016-12-16T12:16:30.685Z,21.01
2016-12-16T12:17:40.964Z,21
2016-12-16T12:18:51.293Z,20.88
2016-12-16T12:20:01.268Z,20.9
2016-12-16T12:21:11.562Z,20.85
2016-12-16T12:22:21.549Z,20.93
2016-12-16T12:23:31.819Z,21.01
2016-12-16T12:24:41.825Z,20.85
2016-12-16T12:25:52.117Z,21.01
2016-12-16T12:27:01.841Z,20.95
2016-12-16T12:28:12.119Z,20.88
2016-12-16T12:29:22.404Z,20.88
2016-12-16T12:30:32.378Z,20.95
2016-12-16T12:31:42.657Z,20.95
2016-12-16T12:32:52.629Z,20.95
2016-12-16T12:34:02.910Z,20.89
2016-12-16T12:35:13.211Z,20.92
2016-12-16T12:36:23.508Z,20.9
2016-12-16T12:37:33.492Z,20.93
2016-12-16T12:38:43.201Z,20.95
2016-12-16T12:39:52.868Z,20.96
2016-12-16T12:41:02.869Z,20.89
2016-12-16T12:42:13.166Z,20.92
2016-12-16T12:43:23.466Z,20.92
2016-12-16T12:44:33.754Z,20.88
2016-12-16T12:45:43.730Z,20.89
2016-12-16T12:46:53.698Z,20.96
2016-12-16T12:48:03.352Z,20.89
2016-12-16T12:49:13.035Z,20.89
2016-12-16T12:50:23.064Z,20.89
2016-12-16T12:51:32.728Z,20.92
2016-12-16T12:52:43.039Z,20.88
2016-12-16T12:53:52.706Z,20.89
2016-12-16T12:55:03.014Z,20.89
2016-12-16T12:56:12.990Z,20.89
2016-12-16T12:57:22.965Z,20.86
2016-12-16T12:58:32.943Z,20.92
2016-12-16T12:59:43.225Z,20.93
2016-12-16T13:00:53.186Z,20.89
2016-12-16T13:02:03.161Z,20.92
2016-12-16T13:03:13.440Z,20.9
2016-12-16T13:04:23.724Z,20.89
2016-12-16T13:05:34.002Z,20.86
2016-12-16T13:06:44.285Z,20.85
2016-12-16T13:07:54.261Z,20.88
2016-12-16T13:09:04.223Z,20.89
2016-12-16T13:10:14.182Z,20.86
2016-12-16T13:11:23.839Z,20.89
2016-12-16T13:12:33.817Z,20.86
2016-12-16T13:13:43.494Z,20.89
2016-12-16T13:14:53.772Z,20.85
2016-12-16T13:16:03.487Z,20.86
2016-12-16T13:17:13.129Z,20.86
2016-12-16T13:18:23.104Z,20.85
2016-12-16T13:19:32.451Z,20.85
2016-12-16T13:20:42.425Z,20.8
2016-12-16T13:21:52.406Z,20.86
2016-12-16T13:23:02.675Z,20.77
2016-12-16T13:24:12.947Z,20.86
2016-12-16T13:25:22.928Z,20.86
2016-12-16T13:26:32.935Z,20.89
2016-12-16T13:27:42.585Z,20.77
2016-12-16T13:28:52.880Z,20.82
2016-12-16T13:30:02.876Z,20.83
2016-12-16T13:31:13.244Z,20.78
2016-12-16T13:32:23.542Z,20.83
2016-12-16T13:33:33.854Z,20.86
2016-12-16T13:34:43.884Z,20.8
2016-12-16T13:35:53.868Z,20.8
2016-12-16T13:37:03.878Z,20.8
2016-12-16T13:38:14.168Z,20.8
2016-12-16T13:39:24.146Z,20.74
2016-12-16T13:40:33.810Z,20.83
2016-12-16T13:41:43.781Z,20.74
2016-12-16T13:42:54.066Z,20.78
2016-12-16T13:44:04.075Z,20.77
2016-12-16T13:45:13.442Z,20.77
2016-12-16T13:46:23.445Z,20.73
2016-12-16T13:47:33.452Z,20.8
2016-12-16T13:48:43.737Z,20.78
2016-12-16T13:49:53.723Z,20.77
2016-12-16T13:51:03.688Z,20.7
2016-12-16T13:52:14.017Z,20.71
2016-12-16T13:53:24.302Z,20.77
2016-12-16T13:54:34.271Z,20.71
2016-12-16T13:55:44.238Z,20.73
2016-12-16T13:56:54.534Z,20.8
2016-12-16T13:58:04.508Z,20.8
2016-12-16T13:59:14.779Z,20.8
2016-12-16T14:00:24.808Z,20.75
2016-12-16T14:01:34.805Z,20.8
2016-12-16T14:02:45.109Z,20.78
2016-12-16T14:03:55.662Z,20.73
2016-12-16T14:05:05.634Z,20.71
2016-12-16T14:06:15.935Z,20.77
2016-12-16T14:07:26.231Z,20.7
2016-12-16T14:08:36.542Z,20.77
2016-12-16T14:09:46.510Z,20.75
2016-12-16T14:10:56.485Z,20.74
2016-12-16T14:12:06.498Z,20.74
2016-12-16T14:13:16.472Z,20.75
2016-12-16T14:14:26.759Z,20.71
2016-12-16T14:15:37.035Z,20.77
2016-12-16T14:16:46.728Z,20.75
2016-12-16T14:17:57.016Z,20.73
2016-12-16T14:19:07.009Z,20.73
2016-12-16T14:20:17.281Z,20.67
2016-12-16T14:21:27.569Z,20.7
2016-12-16T14:22:37.579Z,20.7
2016-12-16T14:23:47.236Z,20.67
2016-12-16T14:24:57.201Z,20.7
2016-12-16T14:26:06.867Z,20.67
2016-12-16T14:27:16.840Z,20.66
2016-12-16T14:28:26.834Z,20.67
2016-12-16T14:29:37.118Z,20.63
2016-12-16T14:30:47.100Z,20.73
2016-12-16T14:31:57.076Z,20.6
2016-12-16T14:33:07.362Z,20.68
2016-12-16T14:34:17.322Z,20.64
2016-12-16T14:35:26.721Z,20.68
2016-12-16T14:36:37.012Z,20.66
2016-12-16T14:37:47.306Z,20.68
2016-12-16T14:38:57.598Z,20.7
2016-12-16T14:40:07.908Z,20.6
2016-12-16T14:41:17.889Z,20.63
2016-12-16T14:42:28.163Z,20.66
2016-12-16T14:43:38.132Z,20.63
2016-12-16T14:44:48.427Z,20.67
2016-12-16T14:45:58.721Z,20.64
2016-12-16T14:47:08.714Z,20.63
2016-12-16T14:48:19.031Z,20.59
2016-12-16T14:49:28.993Z,20.66
2016-12-16T14:50:38.957Z,20.64
2016-12-16T14:51:48.926Z,20.6
2016-12-16T14:52:59.268Z,20.58
2016-12-16T14:54:09.239Z,20.59
2016-12-16T14:55:19.229Z,20.63
2016-12-16T14:56:29.268Z,20.6
2016-12-16T14:57:39.250Z,20.6
2016-12-16T14:58:49.560Z,20.58
2016-12-16T14:59:59.543Z,20.63
2016-12-16T15:01:09.527Z,20.66
2016-12-16T15:02:19.802Z,20.64
2016-12-16T15:03:30.099Z,20.53
2016-12-16T15:04:40.409Z,20.56
2016-12-16T15:05:50.699Z,20.59
2016-12-16T15:07:00.698Z,20.56